createdAt,value
2023-02-17T00:01:24.104Z,90.85
2023-02-17T00:03:51.093Z,91.33
2023-02-17T00:06:18.381Z,91.53
2023-02-17T00:08:44.931Z,91.20
2023-02-17T00:11:11.729Z,90.94
2023-02-17T00:13:38.548Z,91.14
2023-02-17T00:16:09.050Z,91.58
2023-02-17T00:18:35.755Z,92.20
2023-02-17T00:21:10.955Z,92.51
2023-02-17T00:23:37.389Z,92.49
2023-02-17T00:26:07.777Z,92.58
2023-02-17T00:28:34.548Z,92.61
2023-02-17T00:31:05.436Z,93.22
2023-02-17T00:33:31.867Z,93.25
2023-02-17T00:35:58.284Z,92.49
2023-02-17T00:38:24.697Z,92.30
2023-02-17T00:40:51.141Z,92.19
2023-02-17T00:43:17.596Z,91.93
2023-02-17T00:45:44.035Z,91.64
2023-02-17T00:48:10.895Z,91.28
2023-02-17T00:50:37.345Z,91.33
2023-02-17T00:53:03.752Z,91.62
2023-02-17T00:55:30.203Z,91.82
2023-02-17T00:57:56.610Z,91.97
2023-02-17T01:00:23.165Z,91.77
2023-02-17T01:02:49.657Z,91.42
2023-02-17T01:05:16.114Z,91.63
2023-02-17T01:07:42.530Z,91.32
2023-02-17T01:10:09.422Z,91.70
2023-02-17T01:12:35.851Z,91.50
2023-02-17T01:15:02.493Z,91.14
2023-02-17T01:17:28.975Z,90.91
2023-02-17T01:19:55.671Z,90.65
2023-02-17T01:22:22.088Z,90.46
2023-02-17T01:24:48.619Z,90.47
2023-02-17T01:27:15.155Z,90.29
2023-02-17T01:29:41.870Z,90.67
2023-02-17T01:32:08.293Z,90.43
2023-02-17T01:34:34.704Z,90.48
2023-02-17T01:37:01.137Z,90.88
2023-02-17T01:39:27.632Z,90.73
2023-02-17T01:41:54.082Z,91.26
2023-02-17T01:44:23.078Z,91.15
2023-02-17T01:46:51.070Z,91.55
2023-02-17T01:49:17.463Z,91.42
2023-02-17T01:51:45.413Z,91.72
2023-02-17T01:54:14.414Z,91.42
2023-02-17T01:56:43.184Z,91.28
2023-02-17T01:59:17.148Z,90.98
2023-02-17T02:01:43.814Z,91.39
2023-02-17T02:04:10.438Z,91.27
2023-02-17T02:06:39.055Z,91.00
2023-02-17T02:09:11.096Z,91.03
2023-02-17T02:11:37.854Z,91.12
2023-02-17T02:14:06.841Z,90.93
2023-02-17T02:16:42.407Z,91.34
2023-02-17T02:19:27.544Z,91.23
2023-02-17T02:22:02.083Z,91.36
2023-02-17T02:24:36.878Z,91.15
2023-02-17T02:27:26.173Z,90.90
2023-02-17T02:30:08.751Z,90.80
2023-02-17T02:32:35.247Z,91.01
2023-02-17T02:35:15.079Z,90.93
2023-02-17T02:37:57.997Z,90.80
2023-02-17T02:40:27.123Z,91.14
2023-02-17T02:42:54.766Z,90.76
2023-02-17T02:45:21.457Z,91.21
2023-02-17T02:47:55.346Z,91.05
2023-02-17T02:50:31.210Z,91.18
2023-02-17T02:53:00.402Z,91.54
2023-02-17T02:55:29.629Z,91.25
2023-02-17T02:58:17.294Z,91.70
2023-02-17T03:00:54.436Z,91.40
2023-02-17T03:03:20.937Z,91.56
2023-02-17T03:05:50.469Z,91.86
2023-02-17T03:08:37.842Z,91.85
2023-02-17T03:11:04.424Z,90.96
2023-02-17T03:13:33.160Z,91.01
2023-02-17T03:15:59.603Z,91.23
2023-02-17T03:18:26.069Z,91.35
2023-02-17T03:20:54.764Z,91.56
2023-02-17T03:23:21.184Z,91.84
2023-02-17T03:25:47.674Z,91.59
2023-02-17T03:28:14.602Z,91.84
2023-02-17T03:30:41.282Z,92.25
2023-02-17T03:33:08.102Z,92.28
2023-02-17T03:35:34.714Z,92.62
2023-02-17T03:38:01.396Z,92.12
2023-02-17T03:40:27.853Z,92.04
2023-02-17T03:42:55.863Z,92.13
2023-02-17T03:45:22.322Z,92.28
2023-02-17T03:47:48.732Z,91.96
2023-02-17T03:50:15.193Z,92.44
2023-02-17T03:52:41.668Z,92.43
2023-02-17T03:55:08.288Z,92.52
2023-02-17T03:57:35.364Z,92.56
2023-02-17T04:00:01.794Z,92.60
2023-02-17T04:02:28.212Z,92.23
2023-02-17T04:04:54.833Z,92.41
2023-02-17T04:07:21.268Z,92.43
2023-02-17T04:09:47.687Z,92.13
2023-02-17T04:12:14.166Z,91.95
2023-02-17T04:14:40.585Z,92.18
2023-02-17T04:17:07.047Z,92.08
2023-02-17T04:19:33.467Z,92.14
2023-02-17T04:21:59.901Z,91.99
2023-02-17T04:24:26.406Z,91.26
2023-02-17T04:26:52.921Z,91.38
2023-02-17T04:29:19.346Z,91.20
2023-02-17T04:31:45.952Z,91.29
2023-02-17T04:34:12.469Z,91.17
2023-02-17T04:36:38.908Z,91.44
2023-02-17T04:39:05.480Z,91.33
2023-02-17T04:41:31.919Z,91.48
2023-02-17T04:43:58.444Z,91.79
2023-02-17T04:46:24.890Z,91.36
2023-02-17T04:48:51.330Z,91.53
2023-02-17T04:51:17.748Z,91.53
2023-02-17T04:53:44.182Z,91.57
2023-02-17T04:56:10.588Z,91.43
2023-02-17T04:58:37.033Z,90.94
2023-02-17T05:01:03.785Z,90.89
2023-02-17T05:03:30.230Z,91.15
2023-02-17T05:05:56.674Z,90.79
2023-02-17T05:08:23.210Z,90.71
2023-02-17T05:10:50.846Z,90.59
2023-02-17T05:13:17.282Z,90.83
2023-02-17T05:15:44.533Z,90.81
2023-02-17T05:18:11.275Z,90.61
2023-02-17T05:20:37.707Z,90.99
2023-02-17T05:23:04.300Z,90.86
2023-02-17T05:25:31.385Z,90.87
2023-02-17T05:27:57.787Z,90.82
2023-02-17T05:30:24.207Z,90.91
2023-02-17T05:32:50.645Z,90.84
2023-02-17T05:35:17.107Z,90.78
2023-02-17T05:37:43.532Z,90.73
2023-02-17T05:40:10.266Z,90.59
2023-02-17T05:42:36.692Z,90.91
2023-02-17T05:45:03.521Z,90.92
2023-02-17T05:47:30.103Z,90.63
2023-02-17T05:49:56.545Z,90.61
2023-02-17T05:52:22.980Z,90.76
2023-02-17T05:54:49.396Z,90.68
2023-02-17T05:57:15.831Z,90.79
2023-02-17T05:59:42.259Z,90.71
2023-02-17T06:02:08.846Z,90.91
2023-02-17T06:04:35.405Z,90.87
2023-02-17T06:07:01.910Z,91.31
2023-02-17T06:09:28.439Z,91.74
2023-02-17T06:11:54.931Z,91.82
2023-02-17T06:14:21.427Z,91.93
2023-02-17T06:16:47.865Z,91.80
2023-02-17T06:19:14.306Z,91.47
2023-02-17T06:21:40.771Z,91.59
2023-02-17T06:24:07.224Z,91.73
2023-02-17T06:26:33.652Z,91.85
2023-02-17T06:29:00.111Z,91.83
2023-02-17T06:31:26.668Z,91.35
2023-02-17T06:33:53.237Z,91.53
2023-02-17T06:36:19.699Z,91.89
2023-02-17T06:38:46.455Z,91.64
2023-02-17T06:41:12.930Z,91.66
2023-02-17T06:43:39.344Z,91.80
2023-02-17T06:46:06.153Z,91.86
2023-02-17T06:48:35.897Z,92.04
2023-02-17T06:51:02.339Z,91.74
2023-02-17T06:53:28.805Z,92.08
2023-02-17T06:55:55.273Z,92.08
2023-02-17T06:58:21.831Z,92.08
2023-02-17T07:00:48.325Z,92.63
2023-02-17T07:03:14.798Z,92.68
2023-02-17T07:05:41.296Z,92.73
2023-02-17T07:08:07.747Z,92.24
2023-02-17T07:10:34.305Z,92.20
2023-02-17T07:13:00.767Z,92.01
2023-02-17T07:15:27.229Z,92.54
2023-02-17T07:17:53.671Z,92.28
2023-02-17T07:20:22.151Z,92.54
2023-02-17T07:22:48.699Z,92.39
2023-02-17T07:25:15.178Z,91.82
2023-02-17T07:27:41.622Z,91.92
2023-02-17T07:30:08.356Z,91.57
2023-02-17T07:32:35.616Z,91.71
2023-02-17T07:35:02.199Z,91.36
2023-02-17T07:37:28.632Z,91.54
2023-02-17T07:39:57.106Z,91.54
2023-02-17T07:42:23.878Z,91.77
2023-02-17T07:44:50.298Z,91.50
2023-02-17T07:47:16.750Z,91.61
2023-02-17T07:49:43.278Z,91.72
2023-02-17T07:52:09.776Z,91.54
2023-02-17T07:54:36.238Z,91.58
2023-02-17T07:57:02.660Z,90.98
2023-02-17T07:59:29.205Z,90.88
2023-02-17T08:01:55.694Z,91.35
2023-02-17T08:04:22.209Z,91.06
2023-02-17T08:06:48.704Z,91.09
2023-02-17T08:09:33.647Z,91.22
2023-02-17T08:12:18.348Z,91.17
2023-02-17T08:14:44.795Z,91.53
2023-02-17T08:17:11.287Z,90.75
2023-02-17T08:19:53.023Z,90.82
2023-02-17T08:22:19.534Z,91.19
2023-02-17T08:24:46.456Z,91.08
2023-02-17T08:27:14.439Z,90.51
2023-02-17T08:29:41.150Z,91.33
2023-02-17T08:32:07.840Z,90.86
2023-02-17T08:34:34.467Z,91.06
2023-02-17T08:37:01.742Z,90.86
2023-02-17T08:39:28.687Z,91.02
2023-02-17T08:41:55.370Z,90.60
2023-02-17T08:44:22.390Z,90.60
2023-02-17T08:46:49.815Z,91.26
2023-02-17T08:49:17.595Z,90.61
2023-02-17T08:51:44.199Z,91.19
2023-02-17T08:54:11.131Z,90.64
2023-02-17T08:56:38.702Z,90.81
2023-02-17T08:59:05.554Z,90.69
2023-02-17T09:01:32.444Z,90.68
2023-02-17T09:04:00.541Z,90.42
2023-02-17T09:06:37.526Z,90.16
2023-02-17T09:09:05.484Z,90.18
2023-02-17T09:11:31.942Z,89.51
2023-02-17T09:13:58.486Z,89.82
2023-02-17T09:16:25.052Z,89.29
2023-02-17T09:18:54.505Z,89.24
2023-02-17T09:21:21.290Z,89.50
2023-02-17T09:23:48.487Z,89.93
2023-02-17T09:26:16.412Z,89.53
2023-02-17T09:28:42.937Z,89.30
2023-02-17T09:31:13.583Z,89.17
2023-02-17T09:33:40.928Z,88.66
2023-02-17T09:36:09.098Z,88.67
2023-02-17T09:38:37.020Z,88.65
2023-02-17T09:41:23.438Z,88.49
2023-02-17T09:43:53.664Z,87.67
2023-02-17T09:46:24.068Z,86.78
2023-02-17T09:48:51.046Z,87.07
2023-02-17T09:51:21.810Z,87.16
2023-02-17T09:53:57.184Z,87.68
2023-02-17T09:56:32.630Z,86.82
2023-02-17T09:59:02.886Z,86.05
2023-02-17T10:01:31.066Z,86.04
2023-02-17T10:04:02.547Z,85.79
2023-02-17T10:06:37.238Z,85.76
2023-02-17T10:09:13.068Z,85.11
2023-02-17T10:11:58.440Z,84.86
2023-02-17T10:14:28.923Z,85.19
2023-02-17T10:17:00.271Z,85.44
2023-02-17T10:19:32.442Z,85.44
2023-02-17T10:22:05.782Z,85.01
2023-02-17T10:24:32.220Z,84.95
2023-02-17T10:27:17.431Z,84.54
2023-02-17T10:29:50.710Z,83.52
2023-02-17T10:32:20.703Z,83.68
2023-02-17T10:35:02.429Z,83.78
2023-02-17T10:37:38.916Z,84.76
2023-02-17T10:40:31.484Z,84.24
2023-02-17T10:43:03.387Z,84.09
2023-02-17T10:45:37.125Z,84.24
2023-02-17T10:48:06.796Z,83.82
2023-02-17T10:50:34.780Z,84.24
2023-02-17T10:53:01.288Z,84.46
2023-02-17T10:55:38.767Z,84.43
2023-02-17T10:58:17.286Z,84.58
2023-02-17T11:00:45.691Z,84.78
2023-02-17T11:03:22.480Z,85.30
2023-02-17T11:05:59.034Z,85.32
2023-02-17T11:08:28.559Z,85.57
2023-02-17T11:10:59.217Z,86.06
2023-02-17T11:13:34.813Z,86.08
2023-02-17T11:16:01.543Z,86.98
2023-02-17T11:18:29.360Z,86.89
2023-02-17T11:21:04.208Z,86.96
2023-02-17T11:23:30.703Z,87.45
2023-02-17T11:25:58.609Z,87.52
2023-02-17T11:28:26.060Z,88.02
2023-02-17T11:30:54.307Z,87.96
2023-02-17T11:33:23.413Z,88.01
2023-02-17T11:35:53.308Z,88.84
2023-02-17T11:38:21.096Z,88.87
2023-02-17T11:40:55.043Z,88.89
2023-02-17T11:43:21.647Z,89.12
2023-02-17T11:45:59.214Z,89.04
2023-02-17T11:48:33.071Z,89.85
2023-02-17T11:51:11.838Z,89.72
2023-02-17T11:53:50.669Z,89.62
2023-02-17T11:56:17.895Z,89.80
2023-02-17T11:59:02.944Z,89.58
2023-02-17T12:01:52.679Z,89.55
2023-02-17T12:04:22.305Z,89.78
2023-02-17T12:06:48.696Z,90.21
2023-02-17T12:09:40.415Z,89.79
2023-02-17T12:12:12.910Z,89.97
2023-02-17T12:14:49.422Z,90.18
2023-02-17T12:17:24.681Z,89.62
2023-02-17T12:20:26.697Z,89.85
2023-02-17T12:23:08.229Z,91.89
2023-02-17T12:25:37.418Z,91.68
2023-02-17T12:28:10.055Z,91.33
2023-02-17T12:30:46.258Z,91.69
2023-02-17T12:33:21.425Z,92.31
2023-02-17T12:35:52.823Z,91.76
2023-02-17T12:38:24.647Z,92.14
2023-02-17T12:40:54.883Z,92.19
2023-02-17T12:43:30.414Z,92.40
2023-02-17T12:45:58.389Z,92.64
2023-02-17T12:48:40.288Z,92.92
2023-02-17T12:51:25.545Z,92.88
2023-02-17T12:53:59.149Z,92.55
2023-02-17T12:56:25.560Z,92.26
2023-02-17T12:58:56.364Z,92.16
2023-02-17T13:01:24.715Z,92.09
2023-02-17T13:03:51.284Z,92.29
2023-02-17T13:06:25.733Z,92.33
2023-02-17T13:08:58.011Z,92.19
2023-02-17T13:11:28.500Z,92.65
2023-02-17T13:13:54.962Z,92.81
2023-02-17T13:16:21.842Z,92.95
2023-02-17T13:18:50.629Z,93.01
2023-02-17T13:21:20.533Z,92.86
2023-02-17T13:24:07.584Z,92.88
2023-02-17T13:26:34.932Z,93.43
2023-02-17T13:29:28.184Z,94.12
2023-02-17T13:31:56.776Z,93.90
2023-02-17T13:34:31.496Z,93.91
2023-02-17T13:36:58.206Z,94.07
2023-02-17T13:39:27.784Z,94.21
2023-02-17T13:41:59.214Z,93.60
2023-02-17T13:44:31.772Z,93.72
2023-02-17T13:47:13.983Z,93.97
2023-02-17T13:49:40.778Z,93.61
2023-02-17T13:52:08.276Z,93.15
2023-02-17T13:54:34.724Z,93.36
2023-02-17T13:57:01.182Z,93.18
2023-02-17T13:59:27.760Z,93.27
2023-02-17T14:01:54.924Z,93.21
2023-02-17T14:04:30.579Z,92.83
2023-02-17T14:07:01.379Z,93.04
2023-02-17T14:09:30.680Z,93.15
2023-02-17T14:11:58.265Z,93.35
2023-02-17T14:14:30.090Z,93.17
2023-02-17T14:17:01.326Z,93.30
2023-02-17T14:19:28.302Z,93.18
2023-02-17T14:21:57.601Z,93.08
2023-02-17T14:24:25.384Z,93.39
2023-02-17T14:26:55.668Z,93.61
2023-02-17T14:29:22.128Z,93.83
2023-02-17T14:31:50.461Z,93.61
2023-02-17T14:34:26.079Z,93.81
2023-02-17T14:36:52.527Z,94.15
2023-02-17T14:39:18.996Z,94.41
2023-02-17T14:41:45.422Z,94.29
2023-02-17T14:44:11.848Z,94.13
2023-02-17T14:46:38.667Z,94.40
2023-02-17T14:49:05.174Z,94.74
2023-02-17T14:51:34.129Z,94.38
2023-02-17T14:54:03.903Z,94.02
2023-02-17T14:56:33.401Z,93.99
2023-02-17T14:58:59.916Z,94.02
2023-02-17T15:01:26.855Z,94.07
2023-02-17T15:03:53.694Z,94.27
2023-02-17T15:06:22.455Z,94.04
2023-02-17T15:08:49.420Z,93.89
2023-02-17T15:11:19.268Z,93.86
2023-02-17T15:13:45.872Z,93.92
2023-02-17T15:16:13.196Z,93.66
2023-02-17T15:18:40.705Z,93.36
2023-02-17T15:21:25.462Z,93.63
2023-02-17T15:23:52.182Z,93.75
2023-02-17T15:26:18.693Z,93.77
2023-02-17T15:28:45.155Z,93.80
2023-02-17T15:31:20.294Z,93.86
2023-02-17T15:33:55.702Z,93.72
2023-02-17T15:36:22.174Z,93.63
2023-02-17T15:38:48.664Z,93.49
2023-02-17T15:41:21.148Z,93.60
2023-02-17T15:43:48.590Z,93.25
2023-02-17T15:46:16.260Z,93.05
2023-02-17T15:48:43.317Z,93.07
2023-02-17T15:51:15.007Z,93.12
2023-02-17T15:53:42.109Z,92.78
2023-02-17T15:56:12.886Z,93.26
2023-02-17T15:58:40.003Z,93.47
2023-02-17T16:01:06.954Z,93.92
2023-02-17T16:03:33.417Z,93.75
2023-02-17T16:05:59.916Z,93.55
2023-02-17T16:08:26.362Z,93.33
2023-02-17T16:10:53.793Z,93.20
2023-02-17T16:13:20.745Z,93.33
2023-02-17T16:15:48.857Z,93.17
2023-02-17T16:18:23.132Z,93.46
2023-02-17T16:20:49.929Z,93.15
2023-02-17T16:23:16.428Z,93.68
2023-02-17T16:25:44.368Z,94.03
2023-02-17T16:28:14.656Z,93.68
2023-02-17T16:30:41.158Z,93.53
2023-02-17T16:33:09.708Z,93.69
2023-02-17T16:35:36.365Z,93.54
2023-02-17T16:38:05.288Z,94.06
2023-02-17T16:40:33.730Z,94.33
2023-02-17T16:43:00.315Z,94.02
2023-02-17T16:45:30.815Z,94.34
2023-02-17T16:47:59.269Z,94.20
2023-02-17T16:50:25.731Z,94.17
2023-02-17T16:52:53.534Z,94.01
2023-02-17T16:55:21.483Z,93.87
2023-02-17T16:57:48.377Z,93.63
2023-02-17T17:00:16.848Z,93.97
2023-02-17T17:02:44.173Z,94.71
2023-02-17T17:05:11.829Z,95.39
2023-02-17T17:07:39.240Z,95.04
2023-02-17T17:10:16.567Z,95.10
2023-02-17T17:12:43.824Z,95.11
2023-02-17T17:15:10.679Z,95.11
2023-02-17T17:17:42.803Z,94.75
2023-02-17T17:20:13.584Z,95.46
2023-02-17T17:22:40.296Z,95.58
2023-02-17T17:25:07.060Z,95.32
2023-02-17T17:27:33.517Z,94.78
2023-02-17T17:30:00.061Z,94.24
2023-02-17T17:32:26.673Z,94.79
2023-02-17T17:34:53.252Z,94.83
2023-02-17T17:37:19.693Z,95.10
2023-02-17T17:39:46.110Z,94.95
2023-02-17T17:42:12.928Z,95.42
2023-02-17T17:44:39.463Z,95.74
2023-02-17T17:47:05.867Z,95.30
2023-02-17T17:49:32.308Z,95.23
2023-02-17T17:51:58.752Z,95.63
2023-02-17T17:54:25.173Z,95.03
2023-02-17T17:56:51.644Z,94.94
2023-02-17T17:59:18.052Z,95.00
2023-02-17T18:01:45.869Z,95.36
2023-02-17T18:04:12.506Z,95.12
2023-02-17T18:06:40.748Z,94.65
2023-02-17T18:09:07.975Z,94.99
2023-02-17T18:11:35.228Z,95.25
2023-02-17T18:14:04.384Z,95.74
2023-02-17T18:16:32.055Z,95.85
2023-02-17T18:18:59.415Z,96.00
2023-02-17T18:21:25.862Z,95.75
2023-02-17T18:23:52.466Z,95.96
2023-02-17T18:26:19.159Z,96.01
2023-02-17T18:28:45.982Z,96.11
2023-02-17T18:31:13.718Z,96.56
2023-02-17T18:33:40.232Z,96.23
2023-02-17T18:36:10.691Z,96.33
2023-02-17T18:38:37.297Z,96.40
2023-02-17T18:41:03.925Z,95.63
2023-02-17T18:43:30.721Z,95.96
2023-02-17T18:45:57.336Z,95.91
2023-02-17T18:48:24.153Z,95.72
2023-02-17T18:50:50.874Z,96.24
2023-02-17T18:53:17.649Z,95.72
2023-02-17T18:55:44.569Z,96.04
2023-02-17T18:58:12.409Z,95.79
2023-02-17T19:00:39.011Z,96.51
2023-02-17T19:03:05.473Z,96.04
2023-02-17T19:05:31.923Z,95.81
2023-02-17T19:07:58.729Z,95.70
2023-02-17T19:10:25.161Z,95.57
2023-02-17T19:12:51.627Z,95.86
2023-02-17T19:15:20.976Z,95.93
2023-02-17T19:17:48.642Z,95.84
2023-02-17T19:20:17.003Z,96.16
2023-02-17T19:22:43.528Z,96.41
2023-02-17T19:25:10.129Z,95.84
2023-02-17T19:27:38.327Z,95.70
2023-02-17T19:30:05.126Z,95.71
2023-02-17T19:32:31.584Z,95.58
2023-02-17T19:34:57.998Z,95.93
2023-02-17T19:37:24.439Z,95.61
2023-02-17T19:39:50.852Z,96.33
2023-02-17T19:42:17.406Z,96.23
2023-02-17T19:44:43.878Z,96.06
2023-02-17T19:47:10.322Z,95.95
2023-02-17T19:49:36.761Z,96.44
2023-02-17T19:52:03.386Z,96.21
2023-02-17T19:54:29.814Z,96.44
2023-02-17T19:56:56.225Z,96.36
2023-02-17T19:59:22.726Z,96.28
2023-02-17T20:01:49.625Z,96.80
2023-02-17T20:04:16.150Z,95.93
2023-02-17T20:06:44.155Z,96.87
2023-02-17T20:09:13.806Z,96.64
2023-02-17T20:11:40.407Z,97.31
2023-02-17T20:14:07.439Z,96.87
2023-02-17T20:16:34.060Z,96.99
2023-02-17T20:19:01.667Z,97.24
2023-02-17T20:21:29.128Z,97.25
2023-02-17T20:23:55.864Z,97.58
2023-02-17T20:26:25.355Z,98.33
2023-02-17T20:28:51.999Z,97.79
2023-02-17T20:31:18.676Z,98.17
2023-02-17T20:33:45.201Z,97.69
2023-02-17T20:36:14.925Z,97.68
2023-02-17T20:38:41.522Z,97.13
2023-02-17T20:41:09.440Z,97.01
2023-02-17T20:43:37.760Z,97.44
2023-02-17T20:46:04.271Z,97.17
2023-02-17T20:48:30.812Z,97.90
2023-02-17T20:50:58.043Z,97.54
2023-02-17T20:53:25.566Z,97.25
2023-02-17T20:55:52.407Z,97.14
2023-02-17T20:58:18.956Z,96.82
2023-02-17T21:00:46.103Z,100.00
2023-02-17T21:03:12.707Z,100.00
2023-02-17T21:05:39.308Z,100.00
2023-02-17T21:08:05.734Z,100.00
2023-02-17T21:10:32.893Z,100.00
2023-02-17T21:12:59.618Z,100.00
2023-02-17T21:15:27.295Z,100.00
2023-02-17T21:17:53.800Z,100.00
2023-02-17T21:20:20.903Z,100.00
2023-02-17T21:22:47.753Z,100.00
2023-02-17T21:25:15.771Z,100.00
2023-02-17T21:27:42.301Z,100.00
2023-02-17T21:30:09.610Z,100.00
2023-02-17T21:32:36.198Z,100.00
2023-02-17T21:35:05.451Z,100.00
2023-02-17T21:37:32.004Z,100.00
2023-02-17T21:39:59.156Z,100.00
2023-02-17T21:42:45.864Z,100.00
2023-02-17T21:45:12.690Z,100.00
2023-02-17T21:47:39.141Z,100.00
2023-02-17T21:50:05.996Z,100.00
2023-02-17T21:52:32.461Z,100.00
2023-02-17T21:55:01.060Z,100.00
2023-02-17T21:57:27.571Z,100.00
2023-02-17T21:59:54.033Z,99.60
2023-02-17T22:02:20.475Z,100.00
2023-02-17T22:04:46.917Z,99.83
2023-02-17T22:07:13.532Z,99.66
2023-02-17T22:09:39.968Z,99.06
2023-02-17T22:12:06.586Z,100.00
2023-02-17T22:14:33.031Z,99.57
2023-02-17T22:16:59.473Z,99.03
2023-02-17T22:19:25.971Z,99.63
2023-02-17T22:21:52.601Z,99.86
2023-02-17T22:24:20.802Z,99.93
2023-02-17T22:26:48.049Z,100.00
2023-02-17T22:29:14.523Z,100.00
2023-02-17T22:31:41.230Z,100.00
2023-02-17T22:34:09.777Z,100.00
2023-02-17T22:36:36.740Z,100.00
2023-02-17T22:39:04.528Z,100.00
2023-02-17T22:41:31.125Z,100.00
2023-02-17T22:43:57.641Z,100.00
2023-02-17T22:46:24.959Z,100.00
2023-02-17T22:48:52.252Z,100.00
2023-02-17T22:51:20.035Z,100.00
2023-02-17T22:53:46.639Z,100.00
2023-02-17T22:56:13.683Z,100.00
2023-02-17T22:58:40.155Z,100.00
2023-02-17T23:01:07.979Z,100.00
2023-02-17T23:03:34.880Z,100.00
2023-02-17T23:06:06.053Z,100.00
2023-02-17T23:08:32.750Z,100.00
2023-02-17T23:10:59.205Z,100.00
2023-02-17T23:13:25.997Z,100.00
2023-02-17T23:15:52.417Z,100.00
2023-02-17T23:18:19.573Z,100.00
2023-02-17T23:20:47.912Z,100.00
2023-02-17T23:23:14.697Z,100.00
2023-02-17T23:25:51.151Z,100.00
2023-02-17T23:28:19.122Z,100.00
2023-02-17T23:30:47.519Z,100.00
2023-02-17T23:33:23.672Z,100.00
2023-02-17T23:35:50.219Z,100.00
2023-02-17T23:38:18.206Z,100.00
2023-02-17T23:40:47.870Z,100.00
2023-02-17T23:43:14.322Z,100.00
2023-02-17T23:45:40.833Z,100.00
2023-02-17T23:48:07.367Z,100.00
2023-02-17T23:50:33.799Z,100.00
2023-02-17T23:53:00.228Z,100.00
2023-02-17T23:55:26.768Z,100.00
2023-02-17T23:57:53.204Z,100.00
